SUR4434 SCEL-SAEZ
Flight info
| Callsign | SUR4434 |
|---|---|
| Flight time | 1h 26m |
| Altitude | 37000 |
| Route | ALBAL UM424 ASADA |
| Aircraft | A321/M-SDE3FGHIRWY/LB1 |
Departure
| Time | 2026-05-04 22:35 |
|---|---|
| Airport | Comodoro Arturo Merino Benítez International Airport (SCEL) |
Arrival
| Time | 2026-05-05 00:01 |
|---|---|
| Airport | Ezeiza International Airport - Ministro Pistarini (SAEZ) |
| Time | Latitude | Longitude | Altitude | Speed | Heading |
|---|---|---|---|---|---|
| 2026-05-04 22:04 | -33.39567 | -70.79152 | 1591 ft | 0 kts | 178° |
| 2026-05-04 22:21 | -33.39562 | -70.79152 | 1591 ft | 2 kts | 176° |
| 2026-05-04 22:21 | -33.39547 | -70.79156 | 1591 ft | 2 kts | 158° |
| 2026-05-04 22:21 | -33.39534 | -70.79164 | 1591 ft | 2 kts | 144° |
| 2026-05-04 22:22 | -33.39523 | -70.79176 | 1591 ft | 2 kts | 131° |
| 2026-05-04 22:22 | -33.39514 | -70.79190 | 1591 ft | 2 kts | 118° |
| 2026-05-04 22:22 | -33.39508 | -70.79207 | 1590 ft | 2 kts | 105° |
| 2026-05-04 22:22 | -33.39505 | -70.79224 | 1590 ft | 2 kts | 92° |
| 2026-05-04 22:23 | -33.39507 | -70.79242 | 1590 ft | 2 kts | 84° |
| 2026-05-04 22:23 | -33.39507 | -70.79260 | 1590 ft | 2 kts | 88° |
| 2026-05-04 22:23 | -33.39508 | -70.79277 | 1590 ft | 2 kts | 86° |
| 2026-05-04 22:23 | -33.39508 | -70.79285 | 1590 ft | 0 kts | 86° |
| 2026-05-04 22:26 | -33.39508 | -70.79274 | 1590 ft | 4 kts | 86° |
| 2026-05-04 22:26 | -33.39505 | -70.79219 | 1590 ft | 7 kts | 87° |
| 2026-05-04 22:26 | -33.39494 | -70.79160 | 1591 ft | 7 kts | 58° |
| 2026-05-04 22:26 | -33.39443 | -70.79134 | 1591 ft | 9 kts | 0° |
| 2026-05-04 22:27 | -33.39367 | -70.79139 | 1590 ft | 11 kts | 352° |
| 2026-05-04 22:27 | -33.39319 | -70.79210 | 1590 ft | 13 kts | 276° |
| 2026-05-04 22:27 | -33.39324 | -70.79328 | 1589 ft | 15 kts | 266° |
| 2026-05-04 22:27 | -33.39331 | -70.79464 | 1586 ft | 17 kts | 266° |
| 2026-05-04 22:28 | -33.39337 | -70.79614 | 1585 ft | 18 kts | 267° |
| 2026-05-04 22:28 | -33.39341 | -70.79774 | 1582 ft | 18 kts | 268° |
| 2026-05-04 22:28 | -33.39347 | -70.79911 | 1580 ft | 17 kts | 267° |
| 2026-05-04 22:28 | -33.39343 | -70.80010 | 1579 ft | 11 kts | 290° |
| 2026-05-04 22:29 | -33.39275 | -70.80055 | 1579 ft | 12 kts | 353° |
| 2026-05-04 22:29 | -33.39183 | -70.80062 | 1579 ft | 13 kts | 358° |
| 2026-05-04 22:29 | -33.39085 | -70.80065 | 1578 ft | 14 kts | 358° |
| 2026-05-04 22:29 | -33.38983 | -70.80069 | 1579 ft | 15 kts | 357° |
| 2026-05-04 22:30 | -33.38873 | -70.80077 | 1579 ft | 16 kts | 357° |
| 2026-05-04 22:30 | -33.38755 | -70.80083 | 1579 ft | 17 kts | 358° |
| 2026-05-04 22:30 | -33.38626 | -70.80090 | 1579 ft | 19 kts | 358° |
| 2026-05-04 22:30 | -33.38494 | -70.80099 | 1579 ft | 18 kts | 356° |
| 2026-05-04 22:31 | -33.38363 | -70.80107 | 1579 ft | 18 kts | 358° |
| 2026-05-04 22:31 | -33.38234 | -70.80112 | 1579 ft | 18 kts | 358° |
| 2026-05-04 22:31 | -33.38107 | -70.80122 | 1578 ft | 18 kts | 356° |
| 2026-05-04 22:31 | -33.37978 | -70.80128 | 1578 ft | 19 kts | 358° |
| 2026-05-04 22:32 | -33.37840 | -70.80135 | 1578 ft | 20 kts | 356° |
| 2026-05-04 22:32 | -33.37695 | -70.80143 | 1578 ft | 21 kts | 358° |
| 2026-05-04 22:32 | -33.37544 | -70.80150 | 1578 ft | 21 kts | 358° |
| 2026-05-04 22:32 | -33.37395 | -70.80155 | 1578 ft | 21 kts | 358° |
| 2026-05-04 22:33 | -33.37260 | -70.80162 | 1578 ft | 13 kts | 357° |
| 2026-05-04 22:33 | -33.37162 | -70.80176 | 1578 ft | 13 kts | 340° |
| 2026-05-04 22:33 | -33.37107 | -70.80258 | 1578 ft | 13 kts | 269° |
| 2026-05-04 22:33 | -33.37145 | -70.80357 | 1578 ft | 13 kts | 213° |
| 2026-05-04 22:34 | -33.37288 | -70.80367 | 1578 ft | 45 kts | 176° |
| 2026-05-04 22:34 | -33.37849 | -70.80337 | 1578 ft | 112 kts | 177° |
| 2026-05-04 22:34 | -33.38826 | -70.80286 | 1587 ft | 164 kts | 178° |
| 2026-05-04 22:34 | -33.40018 | -70.80250 | 2045 ft | 172 kts | 179° |
| 2026-05-04 22:35 | -33.41237 | -70.80222 | 2644 ft | 177 kts | 179° |
| 2026-05-04 22:35 | -33.42460 | -70.80180 | 3251 ft | 179 kts | 180° |
| 2026-05-04 22:35 | -33.43722 | -70.80146 | 3651 ft | 184 kts | 178° |
| 2026-05-04 22:35 | -33.45047 | -70.80050 | 3941 ft | 196 kts | 177° |
| 2026-05-04 22:36 | -33.46439 | -70.79940 | 4262 ft | 207 kts | 176° |
| 2026-05-04 22:36 | -33.47945 | -70.79826 | 4543 ft | 222 kts | 177° |
| 2026-05-04 22:36 | -33.49553 | -70.79722 | 4803 ft | 239 kts | 177° |
| 2026-05-04 22:36 | -33.51268 | -70.79622 | 5062 ft | 257 kts | 178° |
| 2026-05-04 22:37 | -33.53149 | -70.79519 | 5397 ft | 275 kts | 178° |
| 2026-05-04 22:37 | -33.55080 | -70.79417 | 5896 ft | 284 kts | 177° |
| 2026-05-04 22:37 | -33.57086 | -70.79309 | 6551 ft | 288 kts | 177° |
| 2026-05-04 22:37 | -33.59082 | -70.79200 | 7200 ft | 291 kts | 178° |
| 2026-05-04 22:38 | -33.61115 | -70.79098 | 7828 ft | 295 kts | 179° |
| 2026-05-04 22:38 | -33.63190 | -70.78999 | 8453 ft | 300 kts | 179° |
| 2026-05-04 22:38 | -33.65274 | -70.78903 | 9090 ft | 303 kts | 179° |
| 2026-05-04 22:38 | -33.67409 | -70.78803 | 9709 ft | 307 kts | 180° |
| 2026-05-04 22:39 | -33.69535 | -70.78703 | 10270 ft | 312 kts | 180° |
| 2026-05-04 22:39 | -33.71763 | -70.78601 | 10631 ft | 327 kts | 180° |
| 2026-05-04 22:39 | -33.74092 | -70.78495 | 10892 ft | 343 kts | 180° |
| 2026-05-04 22:39 | -33.76541 | -70.78382 | 11103 ft | 358 kts | 180° |
| 2026-05-04 22:40 | -33.79067 | -70.78262 | 11519 ft | 369 kts | 180° |
| 2026-05-04 22:40 | -33.81638 | -70.78138 | 12053 ft | 374 kts | 180° |
| 2026-05-04 22:40 | -33.84247 | -70.77947 | 12647 ft | 379 kts | 174° |
| 2026-05-04 22:40 | -33.86740 | -70.76863 | 13152 ft | 386 kts | 148° |
| 2026-05-04 22:41 | -33.88655 | -70.74619 | 13735 ft | 388 kts | 123° |
| 2026-05-04 22:41 | -33.89871 | -70.71763 | 14320 ft | 389 kts | 112° |
| 2026-05-04 22:41 | -33.90922 | -70.68722 | 14844 ft | 394 kts | 112° |
| 2026-05-04 22:41 | -33.92020 | -70.65709 | 15338 ft | 399 kts | 114° |
| 2026-05-04 22:42 | -33.93221 | -70.62698 | 15898 ft | 402 kts | 116° |
| 2026-05-04 22:42 | -33.94501 | -70.59684 | 16498 ft | 404 kts | 117° |
| 2026-05-04 22:42 | -33.95816 | -70.56676 | 16995 ft | 408 kts | 117° |
| 2026-05-04 22:42 | -33.97156 | -70.53632 | 17480 ft | 412 kts | 117° |
| 2026-05-04 22:43 | -33.98426 | -70.50534 | 17948 ft | 417 kts | 114° |
| 2026-05-04 22:43 | -33.99538 | -70.47312 | 18436 ft | 421 kts | 110° |
| 2026-05-04 22:43 | -34.00532 | -70.43977 | 18922 ft | 423 kts | 109° |
| 2026-05-04 22:43 | -34.01486 | -70.40652 | 19394 ft | 427 kts | 109° |
| 2026-05-04 22:44 | -34.02453 | -70.37257 | 19842 ft | 431 kts | 109° |
| 2026-05-04 22:44 | -34.03435 | -70.33830 | 20262 ft | 435 kts | 108° |
| 2026-05-04 22:44 | -34.04431 | -70.30357 | 20682 ft | 439 kts | 109° |
| 2026-05-04 22:44 | -34.05434 | -70.26868 | 21138 ft | 442 kts | 109° |
| 2026-05-04 22:45 | -34.06443 | -70.23359 | 21543 ft | 445 kts | 109° |
| 2026-05-04 22:45 | -34.08477 | -70.16273 | 22343 ft | 452 kts | 110° |
| 2026-05-04 22:45 | -34.09508 | -70.12678 | 22690 ft | 456 kts | 110° |
| 2026-05-04 22:46 | -34.10551 | -70.09044 | 23069 ft | 459 kts | 110° |
| 2026-05-04 22:46 | -34.11586 | -70.05424 | 23444 ft | 462 kts | 110° |
| 2026-05-04 22:46 | -34.12644 | -70.01720 | 23859 ft | 465 kts | 110° |
| 2026-05-04 22:46 | -34.13697 | -69.98040 | 24210 ft | 468 kts | 110° |
| 2026-05-04 22:47 | -34.14754 | -69.94324 | 24573 ft | 470 kts | 110° |
| 2026-05-04 22:47 | -34.15820 | -69.90573 | 24948 ft | 473 kts | 110° |
| 2026-05-04 22:47 | -34.16875 | -69.86853 | 25260 ft | 477 kts | 110° |
| 2026-05-04 22:47 | -34.17877 | -69.83047 | 25600 ft | 479 kts | 107° |
| 2026-05-04 22:48 | -34.18683 | -69.79151 | 25941 ft | 482 kts | 103° |
| 2026-05-04 22:48 | -34.19311 | -69.75127 | 26299 ft | 484 kts | 100° |
| 2026-05-04 22:48 | -34.19861 | -69.71133 | 26669 ft | 486 kts | 100° |
| 2026-05-04 22:48 | -34.20400 | -69.67101 | 26997 ft | 488 kts | 100° |
| 2026-05-04 22:49 | -34.20941 | -69.63077 | 27359 ft | 489 kts | 99° |
| 2026-05-04 22:49 | -34.21482 | -69.59061 | 27685 ft | 491 kts | 99° |
| 2026-05-04 22:49 | -34.22042 | -69.54930 | 27997 ft | 493 kts | 100° |
| 2026-05-04 22:49 | -34.22596 | -69.50883 | 28318 ft | 495 kts | 100° |
| 2026-05-04 22:50 | -34.23161 | -69.46733 | 28590 ft | 497 kts | 100° |
| 2026-05-04 22:50 | -34.23729 | -69.42548 | 28916 ft | 499 kts | 99° |
| 2026-05-04 22:50 | -34.24300 | -69.38348 | 29232 ft | 499 kts | 99° |
| 2026-05-04 22:50 | -34.24865 | -69.34169 | 29538 ft | 501 kts | 99° |
| 2026-05-04 22:51 | -34.25428 | -69.29997 | 29753 ft | 504 kts | 99° |
| 2026-05-04 22:51 | -34.25989 | -69.25809 | 30008 ft | 505 kts | 98° |
| 2026-05-04 22:51 | -34.26552 | -69.21626 | 30471 ft | 502 kts | 99° |
| 2026-05-04 22:51 | -34.27100 | -69.17499 | 30886 ft | 499 kts | 99° |
| 2026-05-04 22:52 | -34.27649 | -69.13386 | 31232 ft | 498 kts | 99° |
| 2026-05-04 22:52 | -34.28198 | -69.09259 | 31615 ft | 496 kts | 99° |
| 2026-05-04 22:52 | -34.28742 | -69.05144 | 32019 ft | 494 kts | 99° |
| 2026-05-04 22:52 | -34.29283 | -69.01054 | 32364 ft | 493 kts | 99° |
| 2026-05-04 22:53 | -34.29823 | -68.96966 | 32702 ft | 492 kts | 99° |
| 2026-05-04 22:53 | -34.30353 | -68.92913 | 33015 ft | 491 kts | 99° |
| 2026-05-04 22:53 | -34.30887 | -68.88843 | 33308 ft | 491 kts | 98° |
| 2026-05-04 22:53 | -34.31411 | -68.84813 | 33613 ft | 490 kts | 98° |
| 2026-05-04 22:54 | -34.31941 | -68.80725 | 33923 ft | 489 kts | 98° |
| 2026-05-04 22:54 | -34.32463 | -68.76695 | 34200 ft | 489 kts | 99° |
| 2026-05-04 22:54 | -34.32982 | -68.72657 | 34465 ft | 489 kts | 99° |
| 2026-05-04 22:54 | -34.33504 | -68.68599 | 34729 ft | 489 kts | 99° |
| 2026-05-04 22:55 | -34.34028 | -68.64518 | 34996 ft | 489 kts | 98° |
| 2026-05-04 22:55 | -34.34547 | -68.60457 | 35245 ft | 489 kts | 99° |
| 2026-05-04 22:55 | -34.35059 | -68.56442 | 35445 ft | 490 kts | 99° |
| 2026-05-04 22:55 | -34.35577 | -68.52373 | 35603 ft | 492 kts | 98° |
| 2026-05-04 22:56 | -34.36095 | -68.48292 | 35753 ft | 493 kts | 99° |
| 2026-05-04 22:56 | -34.36613 | -68.44199 | 35932 ft | 494 kts | 98° |
| 2026-05-04 22:56 | -34.37128 | -68.40122 | 36126 ft | 494 kts | 98° |
| 2026-05-04 22:56 | -34.37648 | -68.35989 | 36281 ft | 495 kts | 98° |
| 2026-05-04 22:57 | -34.38164 | -68.31876 | 36415 ft | 497 kts | 98° |
| 2026-05-04 22:57 | -34.38682 | -68.27730 | 36531 ft | 498 kts | 98° |
| 2026-05-04 22:57 | -34.39195 | -68.23615 | 36643 ft | 499 kts | 98° |
| 2026-05-04 22:57 | -34.39711 | -68.19466 | 36746 ft | 500 kts | 98° |
| 2026-05-04 22:58 | -34.40741 | -68.11143 | 36827 ft | 503 kts | 98° |
| 2026-05-04 22:58 | -34.41767 | -68.02829 | 36823 ft | 503 kts | 98° |
| 2026-05-04 22:59 | -34.42791 | -67.94444 | 36813 ft | 503 kts | 98° |
| 2026-05-04 22:59 | -34.43800 | -67.86115 | 36815 ft | 504 kts | 98° |
| 2026-05-04 23:00 | -34.44810 | -67.77771 | 36825 ft | 504 kts | 98° |
| 2026-05-04 23:00 | -34.45792 | -67.69382 | 36811 ft | 504 kts | 97° |
| 2026-05-04 23:01 | -34.46764 | -67.60980 | 36819 ft | 505 kts | 98° |
| 2026-05-04 23:01 | -34.47735 | -67.52535 | 36818 ft | 506 kts | 97° |
| 2026-05-04 23:02 | -34.48695 | -67.44160 | 36817 ft | 506 kts | 97° |
| 2026-05-04 23:02 | -34.49649 | -67.35744 | 36816 ft | 506 kts | 97° |
| 2026-05-04 23:03 | -34.50600 | -67.27321 | 36814 ft | 506 kts | 97° |
| 2026-05-04 23:03 | -34.51551 | -67.18826 | 36816 ft | 508 kts | 97° |
| 2026-05-04 23:04 | -34.52500 | -67.10387 | 36816 ft | 508 kts | 97° |
| 2026-05-04 23:04 | -34.53443 | -67.01929 | 36809 ft | 508 kts | 97° |
| 2026-05-04 23:05 | -34.54377 | -66.93456 | 36814 ft | 509 kts | 97° |
| 2026-05-04 23:05 | -34.55300 | -66.85013 | 36811 ft | 509 kts | 97° |
| 2026-05-04 23:06 | -34.56222 | -66.76534 | 36811 ft | 509 kts | 97° |
| 2026-05-04 23:06 | -34.57143 | -66.68019 | 36822 ft | 510 kts | 97° |
| 2026-05-04 23:07 | -34.58056 | -66.59522 | 36823 ft | 510 kts | 97° |
| 2026-05-04 23:07 | -34.58964 | -66.51004 | 36835 ft | 510 kts | 97° |
| 2026-05-04 23:08 | -34.59864 | -66.42506 | 36840 ft | 509 kts | 97° |
| 2026-05-04 23:08 | -34.60758 | -66.33998 | 36833 ft | 510 kts | 96° |
| 2026-05-04 23:09 | -34.61643 | -66.25526 | 36836 ft | 511 kts | 97° |
| 2026-05-04 23:09 | -34.62532 | -66.16962 | 36830 ft | 510 kts | 96° |
| 2026-05-04 23:10 | -34.63409 | -66.08456 | 36830 ft | 511 kts | 96° |
| 2026-05-04 23:10 | -34.64283 | -65.99890 | 36832 ft | 511 kts | 96° |
| 2026-05-04 23:11 | -34.65151 | -65.91370 | 36824 ft | 511 kts | 96° |
| 2026-05-04 23:11 | -34.66009 | -65.82841 | 36825 ft | 511 kts | 96° |
| 2026-05-04 23:12 | -34.66865 | -65.74274 | 36832 ft | 512 kts | 97° |
| 2026-05-04 23:12 | -34.67715 | -65.65736 | 36828 ft | 512 kts | 97° |
| 2026-05-04 23:13 | -34.68555 | -65.57199 | 36831 ft | 512 kts | 97° |
| 2026-05-04 23:13 | -34.69397 | -65.48588 | 36829 ft | 513 kts | 97° |
| 2026-05-04 23:14 | -34.70227 | -65.40023 | 36834 ft | 513 kts | 97° |
| 2026-05-04 23:14 | -34.71060 | -65.31464 | 36825 ft | 513 kts | 96° |
| 2026-05-04 23:15 | -34.71885 | -65.22871 | 36832 ft | 514 kts | 96° |
| 2026-05-04 23:15 | -34.72701 | -65.14269 | 36835 ft | 514 kts | 96° |
| 2026-05-04 23:16 | -34.73511 | -65.05695 | 36835 ft | 514 kts | 96° |
| 2026-05-04 23:16 | -34.74320 | -64.97017 | 36836 ft | 515 kts | 97° |
| 2026-05-04 23:17 | -34.75120 | -64.88399 | 36834 ft | 515 kts | 96° |
| 2026-05-04 23:17 | -34.75909 | -64.79802 | 36835 ft | 515 kts | 97° |
| 2026-05-04 23:18 | -34.76694 | -64.71173 | 36831 ft | 515 kts | 96° |
| 2026-05-04 23:18 | -34.77480 | -64.62524 | 36835 ft | 516 kts | 97° |
| 2026-05-04 23:19 | -34.78274 | -64.53873 | 36834 ft | 516 kts | 97° |
| 2026-05-04 23:19 | -34.79065 | -64.45226 | 36831 ft | 516 kts | 97° |
| 2026-05-04 23:20 | -34.79840 | -64.36626 | 36830 ft | 516 kts | 97° |
| 2026-05-04 23:20 | -34.80618 | -64.27911 | 36831 ft | 516 kts | 96° |
| 2026-05-04 23:21 | -34.81379 | -64.19269 | 36829 ft | 516 kts | 97° |
| 2026-05-04 23:21 | -34.82138 | -64.10628 | 36828 ft | 517 kts | 97° |
| 2026-05-04 23:22 | -34.82892 | -64.01943 | 36831 ft | 517 kts | 97° |
| 2026-05-04 23:22 | -34.83640 | -63.93289 | 36828 ft | 517 kts | 97° |
| 2026-05-04 23:23 | -34.84384 | -63.84613 | 36833 ft | 517 kts | 97° |
| 2026-05-04 23:23 | -34.85122 | -63.75895 | 36829 ft | 516 kts | 97° |
| 2026-05-04 23:24 | -34.85846 | -63.67273 | 36827 ft | 517 kts | 97° |
| 2026-05-04 23:24 | -34.86568 | -63.58555 | 36826 ft | 517 kts | 97° |
| 2026-05-04 23:25 | -34.87286 | -63.49897 | 36829 ft | 516 kts | 97° |
| 2026-05-04 23:25 | -34.88006 | -63.41272 | 36828 ft | 516 kts | 97° |
| 2026-05-04 23:26 | -34.88721 | -63.32590 | 36822 ft | 516 kts | 96° |
| 2026-05-04 23:26 | -34.89427 | -63.23904 | 36825 ft | 516 kts | 97° |
| 2026-05-04 23:27 | -34.90125 | -63.15231 | 36826 ft | 516 kts | 97° |
| 2026-05-04 23:27 | -34.90814 | -63.06590 | 36827 ft | 515 kts | 97° |
| 2026-05-04 23:28 | -34.91498 | -62.97918 | 36826 ft | 515 kts | 97° |
| 2026-05-04 23:28 | -34.92176 | -62.89296 | 36830 ft | 515 kts | 97° |
| 2026-05-04 23:29 | -34.92847 | -62.80608 | 36831 ft | 515 kts | 97° |
| 2026-05-04 23:29 | -34.93508 | -62.71978 | 36831 ft | 515 kts | 97° |
| 2026-05-04 23:30 | -34.94165 | -62.63326 | 36833 ft | 515 kts | 97° |
| 2026-05-04 23:30 | -34.94817 | -62.54630 | 36832 ft | 515 kts | 97° |
| 2026-05-04 23:31 | -34.95460 | -62.45938 | 36835 ft | 515 kts | 97° |
| 2026-05-04 23:31 | -34.96086 | -62.37308 | 36840 ft | 514 kts | 97° |
| 2026-05-04 23:32 | -34.96664 | -62.28596 | 36837 ft | 515 kts | 94° |
| 2026-05-04 23:32 | -34.96973 | -62.19950 | 36844 ft | 515 kts | 93° |
| 2026-05-04 23:33 | -34.97247 | -62.11219 | 36845 ft | 515 kts | 93° |
| 2026-05-04 23:33 | -34.97519 | -62.02548 | 36847 ft | 514 kts | 93° |
| 2026-05-04 23:34 | -34.97793 | -61.93874 | 36847 ft | 514 kts | 93° |
| 2026-05-04 23:34 | -34.98058 | -61.85188 | 36850 ft | 514 kts | 93° |
| 2026-05-04 23:35 | -34.98318 | -61.76501 | 36852 ft | 514 kts | 93° |
| 2026-05-04 23:35 | -34.98571 | -61.67864 | 36852 ft | 513 kts | 93° |
| 2026-05-04 23:36 | -34.98816 | -61.59139 | 36857 ft | 513 kts | 93° |
| 2026-05-04 23:36 | -34.99059 | -61.50478 | 36854 ft | 513 kts | 93° |
| 2026-05-04 23:37 | -34.99289 | -61.41806 | 36860 ft | 513 kts | 93° |
| 2026-05-04 23:37 | -34.99511 | -61.33134 | 36856 ft | 513 kts | 93° |
| 2026-05-04 23:38 | -34.99725 | -61.24517 | 36861 ft | 513 kts | 92° |
| 2026-05-04 23:38 | -34.99933 | -61.15849 | 36797 ft | 512 kts | 92° |
| 2026-05-04 23:39 | -35.00035 | -61.11488 | 36209 ft | 513 kts | 93° |
| 2026-05-04 23:39 | -35.00136 | -61.07160 | 35233 ft | 517 kts | 93° |
| 2026-05-04 23:39 | -35.00236 | -61.02777 | 34165 ft | 522 kts | 93° |
| 2026-05-04 23:39 | -35.00337 | -60.98364 | 33206 ft | 526 kts | 92° |
| 2026-05-04 23:40 | -35.00436 | -60.93936 | 32386 ft | 527 kts | 92° |
| 2026-05-04 23:40 | -35.00533 | -60.89484 | 31614 ft | 526 kts | 92° |
| 2026-05-04 23:40 | -35.00626 | -60.85092 | 30853 ft | 525 kts | 92° |
| 2026-05-04 23:40 | -35.00719 | -60.80647 | 30090 ft | 524 kts | 92° |
| 2026-05-04 23:41 | -35.00809 | -60.76252 | 29321 ft | 522 kts | 92° |
| 2026-05-04 23:41 | -35.00899 | -60.71806 | 28659 ft | 518 kts | 92° |
| 2026-05-04 23:41 | -35.00986 | -60.67459 | 28151 ft | 511 kts | 92° |
| 2026-05-04 23:41 | -35.01068 | -60.63226 | 27646 ft | 505 kts | 92° |
| 2026-05-04 23:42 | -35.01149 | -60.58956 | 27130 ft | 498 kts | 92° |
| 2026-05-04 23:42 | -35.01226 | -60.54784 | 26611 ft | 493 kts | 93° |
| 2026-05-04 23:42 | -35.01303 | -60.50638 | 26089 ft | 487 kts | 92° |
| 2026-05-04 23:42 | -35.01378 | -60.46518 | 25574 ft | 482 kts | 93° |
| 2026-05-04 23:43 | -35.01450 | -60.42474 | 25066 ft | 477 kts | 93° |
| 2026-05-04 23:43 | -35.01518 | -60.38503 | 24563 ft | 473 kts | 93° |
| 2026-05-04 23:43 | -35.01582 | -60.34488 | 24057 ft | 468 kts | 91° |
| 2026-05-04 23:43 | -35.01300 | -60.30556 | 23282 ft | 471 kts | 80° |
| 2026-05-04 23:44 | -35.00604 | -60.26603 | 22353 ft | 477 kts | 76° |
| 2026-05-04 23:44 | -34.99816 | -60.22682 | 21613 ft | 477 kts | 76° |
| 2026-05-04 23:44 | -34.99061 | -60.18867 | 20962 ft | 476 kts | 76° |
| 2026-05-04 23:44 | -34.98322 | -60.14957 | 20363 ft | 472 kts | 77° |
| 2026-05-04 23:45 | -34.97617 | -60.11084 | 19765 ft | 469 kts | 78° |
| 2026-05-04 23:45 | -34.96931 | -60.07215 | 19166 ft | 466 kts | 78° |
| 2026-05-04 23:45 | -34.96264 | -60.03402 | 18579 ft | 463 kts | 78° |
| 2026-05-04 23:45 | -34.95599 | -59.99574 | 17972 ft | 460 kts | 78° |
| 2026-05-04 23:46 | -34.94940 | -59.95772 | 17391 ft | 457 kts | 78° |
| 2026-05-04 23:46 | -34.94293 | -59.92037 | 16799 ft | 454 kts | 78° |
| 2026-05-04 23:46 | -34.93633 | -59.88228 | 16200 ft | 451 kts | 78° |
| 2026-05-04 23:46 | -34.92989 | -59.84515 | 15612 ft | 449 kts | 77° |
| 2026-05-04 23:47 | -34.92344 | -59.80828 | 15196 ft | 441 kts | 77° |
| 2026-05-04 23:47 | -34.91715 | -59.77231 | 14837 ft | 432 kts | 77° |
| 2026-05-04 23:47 | -34.91089 | -59.73656 | 14374 ft | 427 kts | 77° |
| 2026-05-04 23:47 | -34.90471 | -59.70138 | 13798 ft | 424 kts | 77° |
| 2026-05-04 23:48 | -34.89861 | -59.66666 | 13304 ft | 420 kts | 76° |
| 2026-05-04 23:48 | -34.89244 | -59.63180 | 12839 ft | 414 kts | 76° |
| 2026-05-04 23:48 | -34.88643 | -59.59791 | 12393 ft | 408 kts | 77° |
| 2026-05-04 23:48 | -34.88047 | -59.56427 | 11942 ft | 401 kts | 77° |
| 2026-05-04 23:49 | -34.87465 | -59.53142 | 11509 ft | 395 kts | 77° |
| 2026-05-04 23:49 | -34.86893 | -59.49921 | 11089 ft | 389 kts | 77° |
| 2026-05-04 23:49 | -34.86327 | -59.46743 | 10666 ft | 383 kts | 77° |
| 2026-05-04 23:49 | -34.85768 | -59.43603 | 10280 ft | 375 kts | 77° |
| 2026-05-04 23:50 | -34.85222 | -59.40540 | 10106 ft | 361 kts | 77° |
| 2026-05-04 23:50 | -34.84700 | -59.37614 | 10028 ft | 346 kts | 77° |
| 2026-05-04 23:50 | -34.84205 | -59.34844 | 9950 ft | 331 kts | 76° |
| 2026-05-04 23:50 | -34.83722 | -59.32146 | 9849 ft | 318 kts | 76° |
| 2026-05-04 23:51 | -34.83257 | -59.29553 | 9476 ft | 316 kts | 76° |
| 2026-05-04 23:51 | -34.82790 | -59.26957 | 9111 ft | 313 kts | 76° |
| 2026-05-04 23:51 | -34.82324 | -59.24372 | 8773 ft | 310 kts | 76° |
| 2026-05-04 23:51 | -34.81865 | -59.21829 | 8429 ft | 307 kts | 76° |
| 2026-05-04 23:52 | -34.81411 | -59.19312 | 8080 ft | 304 kts | 76° |
| 2026-05-04 23:52 | -34.80959 | -59.16808 | 7728 ft | 302 kts | 76° |
| 2026-05-04 23:52 | -34.80513 | -59.14337 | 7397 ft | 298 kts | 76° |
| 2026-05-04 23:52 | -34.80070 | -59.11883 | 7062 ft | 295 kts | 76° |
| 2026-05-04 23:53 | -34.79630 | -59.09455 | 6727 ft | 293 kts | 76° |
| 2026-05-04 23:53 | -34.79197 | -59.07073 | 6384 ft | 291 kts | 76° |
| 2026-05-04 23:53 | -34.78761 | -59.04673 | 6044 ft | 288 kts | 76° |
| 2026-05-04 23:53 | -34.78336 | -59.02332 | 5695 ft | 285 kts | 75° |
| 2026-05-04 23:54 | -34.77906 | -58.99972 | 5404 ft | 281 kts | 75° |
| 2026-05-04 23:54 | -34.77494 | -58.97706 | 5361 ft | 266 kts | 75° |
| 2026-05-04 23:54 | -34.77107 | -58.95581 | 5301 ft | 252 kts | 75° |
| 2026-05-04 23:54 | -34.76735 | -58.93542 | 5238 ft | 240 kts | 75° |
| 2026-05-04 23:55 | -34.76378 | -58.91586 | 5141 ft | 235 kts | 75° |
| 2026-05-04 23:55 | -34.76100 | -58.89632 | 4992 ft | 236 kts | 88° |
| 2026-05-04 23:55 | -34.76447 | -58.85626 | 4368 ft | 239 kts | 101° |
| 2026-05-04 23:56 | -34.76835 | -58.83653 | 4057 ft | 239 kts | 102° |
| 2026-05-04 23:56 | -34.77228 | -58.81691 | 3842 ft | 232 kts | 102° |
| 2026-05-04 23:56 | -34.77587 | -58.79797 | 3523 ft | 228 kts | 101° |
| 2026-05-04 23:56 | -34.77919 | -58.77951 | 3220 ft | 223 kts | 100° |
| 2026-05-04 23:57 | -34.78237 | -58.76136 | 2924 ft | 218 kts | 99° |
| 2026-05-04 23:57 | -34.78547 | -58.74348 | 2642 ft | 211 kts | 99° |
| 2026-05-04 23:57 | -34.78846 | -58.72633 | 2480 ft | 199 kts | 99° |
| 2026-05-04 23:57 | -34.79115 | -58.71109 | 2447 ft | 173 kts | 99° |
| 2026-05-04 23:58 | -34.79359 | -58.69716 | 2358 ft | 168 kts | 99° |
| 2026-05-04 23:58 | -34.79601 | -58.68331 | 2182 ft | 166 kts | 99° |
| 2026-05-04 23:58 | -34.79840 | -58.66971 | 1957 ft | 162 kts | 99° |
| 2026-05-04 23:58 | -34.80069 | -58.65680 | 1725 ft | 154 kts | 99° |
| 2026-05-04 23:59 | -34.80294 | -58.64413 | 1525 ft | 153 kts | 99° |
| 2026-05-04 23:59 | -34.80517 | -58.63152 | 1328 ft | 152 kts | 99° |
| 2026-05-04 23:59 | -34.80740 | -58.61896 | 1138 ft | 151 kts | 98° |
| 2026-05-04 23:59 | -34.80964 | -58.60648 | 920 ft | 150 kts | 99° |
| 2026-05-05 00:00 | -34.81181 | -58.59422 | 695 ft | 148 kts | 99° |
| 2026-05-05 00:00 | -34.81328 | -58.58603 | 536 ft | 148 kts | 100° |
| 2026-05-05 00:00 | -34.81621 | -58.56973 | 292 ft | 146 kts | 100° |
| 2026-05-05 00:00 | -34.81829 | -58.55775 | 116 ft | 145 kts | 100° |
| 2026-05-05 00:01 | -34.82047 | -58.54591 | 71 ft | 134 kts | 98° |
| 2026-05-05 00:01 | -34.82198 | -58.53676 | 70 ft | 85 kts | 100° |
| 2026-05-05 00:01 | -34.82278 | -58.53232 | 70 ft | 46 kts | 102° |
| 2026-05-05 00:01 | -34.82328 | -58.52947 | 70 ft | 21 kts | 98° |
| 2026-05-05 00:02 | -34.82271 | -58.52892 | 70 ft | 11 kts | 355° |
| 2026-05-05 00:02 | -34.82189 | -58.52918 | 70 ft | 13 kts | 344° |
| 2026-05-05 00:02 | -34.82085 | -58.52958 | 70 ft | 16 kts | 334° |
| 2026-05-05 00:02 | -34.82018 | -58.53057 | 70 ft | 16 kts | 286° |
| 2026-05-05 00:03 | -34.81992 | -58.53189 | 70 ft | 16 kts | 282° |
| 2026-05-05 00:03 | -34.81966 | -58.53325 | 70 ft | 16 kts | 284° |
| 2026-05-05 00:03 | -34.81938 | -58.53455 | 70 ft | 15 kts | 285° |
| 2026-05-05 00:03 | -34.81909 | -58.53585 | 70 ft | 16 kts | 294° |
| 2026-05-05 00:04 | -34.81827 | -58.53674 | 70 ft | 16 kts | 332° |
| 2026-05-05 00:04 | -34.81731 | -58.53735 | 70 ft | 15 kts | 324° |
| 2026-05-05 00:04 | -34.81654 | -58.53817 | 70 ft | 14 kts | 314° |
| 2026-05-05 00:04 | -34.81588 | -58.53900 | 70 ft | 10 kts | 316° |
| 2026-05-05 00:05 | -34.81553 | -58.53941 | 70 ft | 2 kts | 317° |